• Join FlightAware (Why Join?)
  • Login
  • US Flag 
05:18PM EDT


 

Airport Tracker/Info


-or-


 

Live Flight TrackerFlight Track Log ✈ N600TR ✈ 15-Aug-2013 ✈ KATL - KORD

Flight Track Log - Related Links

Times and Time Zones

All times are in EDT time to prevent confusion due to time zone crossing. See the N600TR flight status page for this flight to view local times or setup timezone preferences in your user account.

Time Position Orientation Groundspeed Altitude Reporting Facility
EDT Latitude Longitude Course Direction KTS MPH feet Rate Location/Type
10:13PM 33.6500 -84.3833 349° North 164 189 2,700  Level Atlanta TRACON
10:14PM 33.6833 -84.3167 59° Northeast 243 280 4,200 1,800 Climbing Atlanta TRACON
10:15PM 33.7500 -84.2833 23° Northeast 277 319 6,400 2,040 Climbing Atlanta TRACON
10:16PM 33.9721 -84.5070 349° North  Level FlightAware Approximate
10:16PM 33.8000 -84.3000 345° North 284 327 8,100  Level Atlanta TRACON
10:17PM 34.0839 -84.5335 349° North  Level FlightAware Approximate
10:17PM 33.8833 -84.3167 351° North 297 342 10,200  Level Atlanta TRACON
10:18PM 34.1897 -84.5637 347° North  Level FlightAware Approximate
10:18PM 33.9775 -84.3869 328° Northwest 347 399 11,200  Level Atlanta Center
10:19PM 34.3016 -84.5897 349° North  Level FlightAware Approximate
10:19PM 34.0608 -84.4550 326° Northwest 367 422 12,800  Level Atlanta Center
10:20PM 34.1461 -84.5233 326° Northwest 367 422 15,000 1,860 Climbing Atlanta Center
10:21PM 34.2419 -84.5792 334° Northwest 372 428 16,600 1,440 Climbing Atlanta Center
10:22PM 34.3481 -84.6075 348° North 380 437 17,900 1,500 Climbing Atlanta Center
10:23PM 34.4544 -84.6408 346° North 393 452 19,600 1,380 Climbing Atlanta Center
10:24PM 34.5669 -84.6669 349° North 393 452 20,700 1,200 Climbing Atlanta Center
10:25PM 34.6753 -84.7006 346° North 399 459 22,100 1,140 Climbing Atlanta Center
10:26PM 34.7919 -84.7192 353° North 398 458 23,000 900 Climbing Atlanta Center
10:27PM 34.9111 -84.7253 358° North 416 479 24,000 1,080 Climbing Atlanta Center
10:28PM 35.0319 -84.7389 355° North 427 491 25,200 1,020 Climbing Atlanta Center
10:29PM 35.1508 -84.7703 348° North 427 491 26,100 840 Climbing Atlanta Center
10:30PM 35.2714 -84.8019 348° North 432 497 26,900 780 Climbing Atlanta Center
10:31PM 35.3944 -84.8311 349° North 437 503 27,700 420 Climbing Atlanta Center
10:32PM 35.5194 -84.8656 347° North 442 509 27,800 180 Climbing Atlanta Center
10:33PM 35.6464 -84.9025 347° North 453 521 28,100 60 Climbing Atlanta Center
10:34PM 35.7650 -84.9422 345° North 453 521 28,000 -60 Descending Atlanta Center
10:36PM 35.9717 -85.0019 347° North 458 527 28,000  Level Indianapolis Center
10:37PM 36.0981 -85.0261 351° North 457 526 28,000  Level Indianapolis Center
10:38PM 36.2550 -85.0397 356° North 468 539 28,000  Level Indianapolis Center
10:39PM 36.3847 -85.0492 357° North 466 536 28,000  Level Indianapolis Center
10:40PM 36.5169 -85.0569 357° North 473 544 28,000  Level Indianapolis Center
10:41PM 36.6489 -85.0644 357° North 473 544 28,000  Level Indianapolis Center
10:42PM 36.7819 -85.0747 356° North 479 551 28,000  Level Indianapolis Center
10:43PM 36.9136 -85.0869 356° North 475 547 28,000  Level Indianapolis Center
10:44PM 37.0572 -85.0994 356° North 478 550 28,000  Level Indianapolis Center
10:45PM 37.1889 -85.1153 355° North 474 545 28,000  Level Indianapolis Center
10:46PM 37.3203 -85.1319 354° North 473 544 28,000  Level Indianapolis Center
10:47PM 37.4503 -85.1472 355° North 468 539 28,000  Level Indianapolis Center
10:48PM 37.5806 -85.1622 355° North 467 537 28,000  Level Indianapolis Center
10:49PM 37.7100 -85.1806 354° North 467 537 28,000  Level Indianapolis Center
10:50PM 37.8389 -85.1978 354° North 467 537 28,000  Level Indianapolis Center
10:51PM 37.9703 -85.2164 354° North 471 542 28,000  Level Indianapolis Center
10:52PM 38.0992 -85.2344 354° North 467 537 28,000  Level Indianapolis Center
10:53PM 38.2278 -85.2531 354° North 466 536 28,000  Level Indianapolis Center
10:55PM 38.3572 -85.2717 354° North 468 539 28,000  Level Indianapolis Center
10:56PM 38.4861 -85.2919 353° North 467 537 28,000  Level Indianapolis Center
10:57PM 38.6408 -85.3139 354° North 466 536 28,000  Level Indianapolis Center
10:58PM 38.7692 -85.3317 354° North 467 537 28,000  Level Indianapolis Center
10:59PM 38.8978 -85.3500 354° North 466 536 28,000  Level Indianapolis Center
11:00PM 39.0253 -85.3664 354° North 463 533 28,000  Level Indianapolis Center
11:01PM 39.1531 -85.3819 355° North 463 533 28,000  Level Indianapolis Center
11:02PM 39.2806 -85.4014 353° North 464 534 28,000  Level Indianapolis Center
11:03PM 39.4056 -85.4364 348° North 463 533 28,000  Level Indianapolis Center
11:04PM 39.5303 -85.4672 349° North 460 529 28,000  Level Indianapolis Center
11:05PM 39.6811 -85.5011 350° North 462 532 28,000  Level Indianapolis Center
11:06PM 39.8064 -85.5381 347° North 464 534 28,000  Level Indianapolis Center
11:07PM 39.9133 -85.6222 329° Northwest 457 526 28,000  Level Indianapolis Center
11:08PM 40.0214 -85.7047 330° Northwest 454 522 28,000  Level Indianapolis Center
11:09PM 40.1269 -85.7953 327° Northwest 458 527 28,000  Level Indianapolis Center
11:10PM 40.2325 -85.8850 327° Northwest 458 527 28,000  Level Indianapolis Center
11:10PM 40.2958 -85.9347 329° Northwest 457 526 28,000  Level Chicago Center
11:11PM 40.4028 -86.0222 328° Northwest 457 526 28,000  Level Chicago Center
11:12PM 40.5086 -86.1103 328° Northwest 454 522 28,000  Level Chicago Center
11:13PM 40.6156 -86.1981 328° Northwest 455 524 28,000  Level Chicago Center
11:14PM 40.7378 -86.2981 328° Northwest 453 521 28,000  Level Chicago Center
11:15PM 40.8458 -86.3850 329° Northwest 452 520 28,000  Level Chicago Center
11:16PM 40.9536 -86.4722 329° Northwest 453 521 28,000  Level Chicago Center
11:17PM 41.0553 -86.5675 325° Northwest 447 514 28,000 -960 Level Chicago Center
11:19PM 41.1506 -86.6803 318° Northwest 454 522 26,100 -2,640 Descending Chicago Center
11:20PM 41.2467 -86.8100 315° West 442 509 22,700 -3,300 Descending Chicago Center
11:21PM 41.3256 -86.9236 313° West 424 488 19,400 -3,000 Descending Chicago Center
11:22PM 41.4047 -87.0286 315° West 408 470 16,600 -3,000 Descending Chicago Center
11:23PM 41.4775 -87.1336 313° West 394 453 13,300 -2,760 Descending Chicago Center
11:24PM 41.5458 -87.2392 311° West 382 440 11,100 -1,500 Descending Chicago Center
11:25PM 41.6100 -87.3311 313° West 349 402 10,300 -1,080 Descending Chicago Center
11:26PM 41.6631 -87.4108 312° West 300 345 9,000 -1,440 Descending Chicago Center
11:27PM 41.7250 -87.4944 315° West 271 312 7,400 -960 Descending Chicago Center
11:28PM 41.7931 -87.5211 344° North 257 296 7,100 -240 Descending Chicago Center
11:29PM 41.8531 -87.5494 341° North 232 267 7,000 -660 Descending Chicago Center
11:30PM 41.9106 -87.5753 342° North 221 254 5,800 -1,260 Descending Chicago Center
11:31PM 41.9681 -87.6044 339° North 224 258 4,500 -1,200 Descending Chicago Center
11:32PM 41.9833 -87.6667 288° West 197 227 3,700 -900 Descending Chicago TRACON
11:33PM 41.9833 -87.7333 270° West 178 205 2,900 -900 Descending Chicago TRACON
11:33PM 41.9833 -87.7833 270° West 165 190 2,000 -900 Descending Chicago TRACON
11:34PM 41.9833 -87.8500 270° West 141 162 1,300 -720 Descending Chicago TRACON